Pine Cliff, Utah
Current Conditions -  °F | °C
As of 11:53 PM on Wednesday 26 Nov 2014 (Local Time) from KEVW Reporting Station
Clear Clear  
Wind Chill: 24°   Ceiling: Unl
Heat Index: 33°   Visibility: 10mi
Dew Point: 22°   Wind: 13mph
Humidity: 64%   Direction: 220°SW
Pressure: 30.38"   Gusts: NA
Location:  40.9431°N, 111.212°W
Report Text: KEVW 270653Z AUTO 22011KT 10SM CLR 01/M06 A3038 RMK AO2 SLP271 T00061056 400720000
Loading
Personal Weather Stations






























Interactive Weather Map New forecast layout! Learn more

10-Day Weather Forecast

Advertisements
Track Severe Weather on mobile